Time;durP1;ratioP1;P1;durP2;ratioP2;P2;SDS_P1;SDS_P2;PMS_P1;PMS_P2;Temp;Humidity;BMP_temperature;BMP_pressure;BME280_temperature;BME280_humidity;BME280_pressure;Samples;Min_cycle;Max_cycle;Signal;HPM_P1;HPM_P2
2021/03/02 00:01:06;;;;;;;111.28;63.55;;;128.00;2252.80;;;;;;5039677;28;20374;-81
2021/03/02 00:03:34;;;;;;;114.82;64.95;;;103.10;2227.20;;;;;;5039450;28;20040;-83
2021/03/02 00:06:00;;;;;;;133.15;73.35;;;103.10;2227.20;;;;;;5057316;28;20024;-84
2021/03/02 00:08:28;;;;;;;171.90;99.05;;;103.00;2227.20;;;;;;5039263;28;20032;-83
2021/03/02 00:11:00;;;;;;;174.57;99.53;;;103.10;2227.20;;;;;;5039648;28;20021;-82
2021/03/02 00:13:27;;;;;;;204.88;109.97;;;103.10;2227.20;;;;;;5040043;28;20040;-83
2021/03/02 00:15:54;;;;;;;199.90;113.13;;;103.10;2227.20;;;;;;5057247;28;20029;-85
2021/03/02 00:18:24;;;;;;;201.80;115.28;;;103.10;2227.20;;;;;;5057298;28;20029;-79
2021/03/02 00:20:57;;;;;;;189.02;108.60;;;103.00;2227.20;;;;;;5039355;28;20025;-84
2021/03/02 00:23:33;;;;;;;155.60;92.78;;;103.10;2227.20;;;;;;5038073;28;20120;-84
2021/03/02 00:26:01;;;;;;;186.23;99.53;;;103.10;2227.20;;;;;;5039444;28;20025;-82
2021/03/02 00:28:27;;;;;;;153.77;92.75;;;103.10;2227.20;;;;;;5055725;28;20067;-85
2021/03/02 00:30:54;;;;;;;147.77;88.38;;;103.00;2227.20;;;;;;5072515;28;20028;-85
2021/03/02 00:33:24;;;;;;;161.48;95.95;;;103.10;2227.20;;;;;;5039519;28;20037;-84
2021/03/02 00:35:50;;;;;;;138.05;82.85;;;102.90;2227.20;;;;;;5056776;28;20025;-83
2021/03/02 00:38:16;;;;;;;140.45;86.85;;;102.90;2227.20;;;;;;5038852;28;20074;-79
2021/03/02 00:40:42;;;;;;;165.10;96.90;;;102.90;2227.20;;;;;;5038797;28;20064;-83
2021/03/02 00:43:08;;;;;;;137.85;83.40;;;103.00;2227.20;;;;;;5038642;28;20095;-81
2021/03/02 00:45:35;;;;;;;92.75;60.80;;;102.90;2227.20;;;;;;5072052;28;20458;-83
2021/03/02 00:48:01;;;;;;;92.28;57.35;;;102.60;2227.20;;;;;;5038750;28;20049;-84
2021/03/02 00:50:28;;;;;;;127.22;76.13;;;102.70;2227.20;;;;;;5070642;28;20024;-83
2021/03/02 00:52:54;;;;;;;132.93;80.95;;;102.70;2227.20;;;;;;5055714;28;20021;-82
2021/03/02 00:55:20;;;;;;;136.38;81.18;;;102.70;2227.20;;;;;;5038566;28;20068;-84
2021/03/02 00:57:46;;;;;;;127.40;78.70;;;102.50;2227.20;;;;;;5037904;28;20029;-82
2021/03/02 01:00:13;;;;;;;139.25;86.10;;;102.50;2227.20;;;;;;5038338;28;20458;-80
2021/03/02 01:02:38;;;;;;;139.18;86.70;;;77.50;2227.20;;;;;;5038493;28;20021;-83
2021/03/02 01:05:06;;;;;;;146.52;89.90;;;102.50;2227.20;;;;;;5038245;28;20036;-85
2021/03/02 01:07:32;;;;;;;137.38;85.25;;;102.60;2227.20;;;;;;5038364;28;20040;-84
2021/03/02 01:09:58;;;;;;;169.65;100.80;;;102.70;2227.20;;;;;;5038431;28;20048;-81
2021/03/02 01:12:28;;;;;;;154.60;91.28;;;102.80;2227.20;;;;;;5038232;28;20454;-80
2021/03/02 01:14:55;;;;;;;154.05;94.80;;;102.80;2227.20;;;;;;5038272;28;20033;-82
2021/03/02 01:17:22;;;;;;;150.63;91.53;;;102.60;2227.20;;;;;;5038116;28;20055;-82
2021/03/02 01:19:48;;;;;;;133.23;80.57;;;102.70;2227.20;;;;;;5038351;28;20025;-85
2021/03/02 01:22:14;;;;;;;102.60;65.10;;;102.80;2227.20;;;;;;5055821;28;20039;-81
2021/03/02 01:24:39;;;;;;;99.07;58.83;;;102.80;2227.20;;;;;;5037948;28;20097;-83
2021/03/02 01:27:05;;;;;;;118.45;69.47;;;102.90;2227.20;;;;;;5038117;28;20029;-81
2021/03/02 01:29:31;;;;;;;109.22;65.80;;;102.80;2227.20;;;;;;5038129;28;20026;-81
2021/03/02 01:31:57;;;;;;;107.25;64.75;;;102.90;2227.20;;;;;;5037873;28;20025;-83
2021/03/02 01:34:23;;;;;;;100.47;63.67;;;102.80;2227.20;;;;;;5037774;28;20047;-81
2021/03/02 01:36:50;;;;;;;122.65;76.70;;;102.60;2227.20;;;;;;5055690;28;20021;-84
2021/03/02 01:39:16;;;;;;;120.00;71.15;;;102.50;2227.20;;;;;;5038200;28;20374;-81
2021/03/02 01:41:49;;;;;;;110.97;71.43;;;102.50;2227.20;;;;;;5038417;28;20025;-83
2021/03/02 01:44:15;;;;;;;120.63;73.43;;;102.60;2227.20;;;;;;5038410;28;20036;-85
2021/03/02 01:46:41;;;;;;;143.43;84.72;;;102.70;2227.20;;;;;;5037668;28;20121;-84
2021/03/02 01:49:07;;;;;;;144.40;84.38;;;102.70;2227.20;;;;;;5037868;28;20457;-80
2021/03/02 01:51:32;;;;;;;133.20;81.78;;;102.70;2227.20;;;;;;5037511;28;20029;-82
2021/03/02 01:53:58;;;;;;;112.72;70.45;;;102.60;2227.20;;;;;;5037322;28;20068;-83
2021/03/02 01:56:24;;;;;;;103.43;61.58;;;102.60;2227.20;;;;;;5037743;28;20021;-84
2021/03/02 01:58:50;;;;;;;92.68;59.25;;;77.40;2227.20;;;;;;5038325;28;20024;-81
2021/03/02 02:01:18;;;;;;;95.88;55.10;;;76.90;2227.20;;;;;;5054412;28;20048;-80
2021/03/02 02:03:56;;;;;;;96.60;58.70;;;77.10;2227.20;;;;;;5037364;28;20025;-82
2021/03/02 02:06:45;;;;;;;102.80;64.15;;;77.30;2227.20;;;;;;5037246;28;20028;-82
2021/03/02 02:09:20;;;;;;;110.13;66.30;;;77.40;2227.20;;;;;;5037319;28;20119;-81
2021/03/02 02:12:02;;;;;;;118.80;70.35;;;77.50;2227.20;;;;;;5037693;28;20351;-85
2021/03/02 02:14:43;;;;;;;90.07;53.00;;;77.50;2227.20;;;;;;5037110;28;20091;-81
2021/03/02 02:17:18;;;;;;;81.28;52.40;;;77.30;2227.20;;;;;;5037108;28;20025;-82
2021/03/02 02:19:51;;;;;;;81.65;53.88;;;77.40;2227.20;;;;;;5037591;28;20120;-81
2021/03/02 02:22:42;;;;;;;76.78;45.25;;;77.20;2227.20;;;;;;5036810;28;20057;-86
2021/03/02 02:25:26;;;;;;;75.03;43.95;;;77.40;2227.20;;;;;;5037061;28;20056;-83
2021/03/02 02:27:55;;;;;;;91.38;55.28;;;77.50;2227.20;;;;;;5036632;28;20029;-80
2021/03/02 02:30:22;;;;;;;95.93;56.88;;;77.40;2227.20;;;;;;5037116;28;20025;-83
2021/03/02 02:32:50;;;;;;;92.70;57.22;;;77.60;2227.20;;;;;;5036864;28;20029;-84
2021/03/02 02:35:19;;;;;;;88.03;53.78;;;77.50;2227.20;;;;;;5036743;28;20040;-86
2021/03/02 02:37:47;;;;;;;87.43;50.00;;;77.10;2227.20;;;;;;5036891;28;20032;-84
2021/03/02 02:40:15;;;;;;;72.68;45.15;;;77.00;2227.20;;;;;;5036825;28;20029;-88
2021/03/02 02:42:45;;;;;;;85.43;52.67;;;77.10;2227.20;;;;;;5036414;28;20120;-84
2021/03/02 02:45:12;;;;;;;93.65;53.78;;;77.30;2227.20;;;;;;5036852;28;20032;-84
2021/03/02 02:47:39;;;;;;;81.05;52.40;;;77.30;2227.20;;;;;;5036410;28;20049;-84
2021/03/02 02:50:07;;;;;;;83.13;50.28;;;77.20;2227.20;;;;;;5036773;28;20044;-84
2021/03/02 02:52:34;;;;;;;76.10;47.38;;;77.40;2227.20;;;;;;5036510;28;20056;-85
2021/03/02 02:55:00;;;;;;;71.07;43.83;;;77.20;2227.20;;;;;;5054297;28;20238;-84
2021/03/02 02:57:28;;;;;;;88.57;51.22;;;77.20;2227.20;;;;;;5036428;28;20048;-84
2021/03/02 02:59:57;;;;;;;77.47;47.92;;;77.20;2227.20;;;;;;5036849;28;20028;-86
2021/03/02 03:02:26;;;;;;;76.95;45.42;;;52.00;2227.20;;;;;;5036351;28;20029;-85
2021/03/02 03:05:06;;;;;;;75.25;45.65;;;51.70;2227.20;;;;;;5036463;28;20059;-86
2021/03/02 03:07:48;;;;;;;80.38;44.08;;;51.90;2227.20;;;;;;5036387;28;20120;-85
2021/03/02 03:10:14;;;;;;;80.95;48.67;;;76.90;2227.20;;;;;;5036631;28;20071;-82
2021/03/02 03:12:44;;;;;;;87.85;51.15;;;76.90;2227.20;;;;;;5036345;28;20028;-85
2021/03/02 03:15:12;;;;;;;86.55;53.22;;;76.80;2227.20;;;;;;5036085;28;20033;-83
2021/03/02 03:17:42;;;;;;;104.82;56.10;;;76.90;2227.20;;;;;;5036091;28;20355;-84
2021/03/02 03:20:11;;;;;;;81.45;48.47;;;77.00;2227.20;;;;;;5036284;28;20029;-86
2021/03/02 03:22:39;;;;;;;90.03;52.53;;;77.00;2227.20;;;;;;5035476;28;20174;-80
2021/03/02 03:25:07;;;;;;;95.00;56.17;;;77.00;2227.20;;;;;;5036024;28;20029;-84
2021/03/02 03:27:38;;;;;;;91.85;52.13;;;52.00;2227.20;;;;;;5035389;28;20116;-84
2021/03/02 03:30:05;;;;;;;78.03;44.70;;;52.10;2227.20;;;;;;5035907;28;20021;-85
2021/03/02 03:32:32;;;;;;;69.55;42.75;;;51.70;2227.20;;;;;;5035730;28;20029;-82
2021/03/02 03:35:01;;;;;;;80.45;44.03;;;52.00;2227.20;;;;;;5036402;28;20034;-88
2021/03/02 03:37:27;;;;;;;77.72;47.75;;;76.80;2227.20;;;;;;5036387;28;20026;-89
2021/03/02 03:39:53;;;;;;;95.60;57.22;;;76.80;2227.20;;;;;;5036079;28;20489;-87
2021/03/02 03:42:18;;;;;;;72.13;45.35;;;76.80;2227.20;;;;;;5037119;28;20078;-83
2021/03/02 03:44:44;;;;;;;77.22;47.72;;;76.80;2227.20;;;;;;5037979;28;20029;-83
2021/03/02 03:47:10;;;;;;;90.50;52.80;;;52.10;2227.20;;;;;;5036238;28;20041;-83
2021/03/02 03:49:36;;;;;;;91.45;55.58;;;76.90;2227.20;;;;;;5037093;28;20469;-81
2021/03/02 03:52:04;;;;;;;100.50;59.22;;;76.90;2227.20;;;;;;5035934;28;20025;-82
2021/03/02 03:54:31;;;;;;;93.30;54.13;;;76.90;2227.20;;;;;;5035497;28;20048;-85
2021/03/02 03:56:57;;;;;;;67.38;40.80;;;76.90;2227.20;;;;;;5035849;28;20104;-84
2021/03/02 03:59:25;;;;;;;65.38;39.42;;;52.00;2227.20;;;;;;5035743;28;20062;-86
2021/03/02 04:01:52;;;;;;;94.82;53.97;;;51.90;2227.20;;;;;;5035953;28;20048;-85
2021/03/02 04:04:20;;;;;;;104.22;56.05;;;52.10;2227.20;;;;;;5035888;28;20025;-83
2021/03/02 04:06:48;;;;;;;102.18;59.03;;;52.10;2227.20;;;;;;5035745;28;20466;-87
2021/03/02 04:09:14;;;;;;;101.32;58.72;;;76.80;2227.20;;;;;;5035818;28;20040;-84
2021/03/02 04:11:41;;;;;;;81.63;48.20;;;76.90;2227.20;;;;;;5052425;28;20029;-86
2021/03/02 04:14:08;;;;;;;77.00;45.55;;;77.00;2227.20;;;;;;5035240;28;20087;-83
2021/03/02 04:16:38;;;;;;;78.22;46.10;;;76.90;2227.20;;;;;;5035753;28;20021;-87
2021/03/02 04:19:05;;;;;;;95.88;52.97;;;76.90;2227.20;;;;;;5035649;28;20036;-85
2021/03/02 04:21:31;;;;;;;84.70;49.53;;;76.90;2227.20;;;;;;5035384;28;20025;-84
2021/03/02 04:23:58;;;;;;;87.85;51.28;;;76.80;2227.20;;;;;;5037024;28;20032;-86
2021/03/02 04:26:23;;;;;;;99.25;57.20;;;51.90;2227.20;;;;;;5039124;28;20147;-84
2021/03/02 04:28:49;;;;;;;96.80;54.13;;;76.80;2227.20;;;;;;5056050;28;20025;-85
2021/03/02 04:31:15;;;;;;;90.70;55.15;;;76.90;2227.20;;;;;;5072630;28;20029;-87
2021/03/02 04:33:41;;;;;;;87.35;51.05;;;76.80;2227.20;;;;;;5072870;28;20029;-82
2021/03/02 04:36:07;;;;;;;83.60;52.28;;;76.80;2227.20;;;;;;5073350;28;20400;-85
2021/03/02 04:38:33;;;;;;;90.00;56.42;;;51.90;2227.20;;;;;;5039138;28;20035;-85
2021/03/02 04:40:59;;;;;;;89.15;53.58;;;51.60;2227.20;;;;;;5072547;28;20029;-86
2021/03/02 04:43:25;;;;;;;85.97;51.80;;;26.50;2201.60;;;;;;5055576;28;20032;-80
2021/03/02 04:45:51;;;;;;;116.55;64.18;;;51.30;2227.20;;;;;;5038714;28;20021;-81
2021/03/02 04:48:17;;;;;;;117.25;61.90;;;51.20;2227.20;;;;;;5038363;28;20055;-80
2021/03/02 04:50:43;;;;;;;117.65;59.67;;;51.80;2227.20;;;;;;5038703;28;20035;-80
2021/03/02 04:53:09;;;;;;;66.68;40.25;;;51.50;2227.20;;;;;;5038597;28;20074;-80
2021/03/02 04:55:35;;;;;;;69.18;40.78;;;51.20;2227.20;;;;;;5056526;28;20025;-84
2021/03/02 04:58:01;;;;;;;71.38;42.10;;;51.50;2227.20;;;;;;5038526;28;20060;-80
2021/03/02 05:00:27;;;;;;;113.20;64.20;;;51.60;2227.20;;;;;;5072848;28;20036;-79
2021/03/02 05:02:53;;;;;;;136.15;73.10;;;51.60;2227.20;;;;;;5072985;28;20029;-82
2021/03/02 05:05:19;;;;;;;121.63;65.93;;;51.70;2227.20;;;;;;5071780;28;20029;-81
2021/03/02 05:07:44;;;;;;;146.88;76.47;;;51.50;2227.20;;;;;;5072012;28;20107;-84
2021/03/02 05:10:11;;;;;;;133.35;71.97;;;51.40;2227.20;;;;;;5054618;28;20036;-83
2021/03/02 05:12:37;;;;;;;122.55;67.68;;;52.10;2227.20;;;;;;5038180;28;20078;-84
2021/03/02 05:15:04;;;;;;;104.68;59.42;;;26.50;2201.60;;;;;;5071754;28;20049;-82
2021/03/02 05:17:30;;;;;;;107.88;59.65;;;51.30;2227.20;;;;;;5037843;28;20416;-82
2021/03/02 05:19:55;;;;;;;115.97;67.45;;;51.40;2227.20;;;;;;5071869;28;20092;-83
2021/03/02 05:22:21;;;;;;;145.73;82.25;;;51.20;2227.20;;;;;;5073263;28;20398;-82
2021/03/02 05:24:47;;;;;;;120.82;70.63;;;51.20;2227.20;;;;;;5072691;28;20390;-83
2021/03/02 05:27:13;;;;;;;111.95;62.50;;;51.40;2227.20;;;;;;5071390;28;20035;-82
2021/03/02 05:29:39;;;;;;;87.18;50.25;;;51.40;2227.20;;;;;;5071275;28;20029;-81
2021/03/02 05:32:05;;;;;;;95.75;56.13;;;51.50;2227.20;;;;;;5071320;28;20078;-82
2021/03/02 05:34:31;;;;;;;94.10;53.17;;;51.70;2227.20;;;;;;5037685;28;20037;-86
2021/03/02 05:36:57;;;;;;;99.80;58.92;;;51.70;2227.20;;;;;;5036943;28;20025;-85
2021/03/02 05:39:23;;;;;;;100.32;59.95;;;51.80;2227.20;;;;;;5071064;28;20040;-85
2021/03/02 05:41:50;;;;;;;111.20;66.45;;;51.20;2227.20;;;;;;5037728;28;20028;-81
2021/03/02 05:44:16;;;;;;;122.57;69.03;;;51.60;2227.20;;;;;;5037417;28;20025;-80
2021/03/02 05:46:43;;;;;;;124.40;71.70;;;26.50;2201.60;;;;;;5071062;28;20021;-84
2021/03/02 05:49:11;;;;;;;106.38;63.05;;;26.40;2201.60;;;;;;5070939;28;20441;-81
2021/03/02 05:51:38;;;;;;;102.28;61.10;;;26.50;2201.60;;;;;;5037414;28;20033;-84
2021/03/02 05:54:05;;;;;;;106.38;62.17;;;51.20;2227.20;;;;;;5037494;28;20033;-85
2021/03/02 05:56:32;;;;;;;112.38;63.13;;;26.30;2201.60;;;;;;5037603;28;20120;-84
2021/03/02 05:58:58;;;;;;;141.63;74.63;;;51.20;2227.20;;;;;;5037346;28;20523;-80
2021/03/02 06:01:24;;;;;;;220.25;121.85;;;26.30;2201.60;;;;;;5070952;28;20119;-80
2021/03/02 06:03:50;;;;;;;143.18;82.43;;;26.50;2201.60;;;;;;5037257;28;20067;-81
2021/03/02 06:06:16;;;;;;;211.23;123.20;;;51.20;2227.20;;;;;;5070331;28;20401;-82
2021/03/02 06:08:44;;;;;;;178.32;102.80;;;51.20;2227.20;;;;;;5070546;28;20043;-82
2021/03/02 06:11:28;;;;;;;178.15;105.88;;;51.30;2227.20;;;;;;5036948;28;20025;-80
2021/03/02 06:13:55;;;;;;;178.27;107.10;;;51.50;2227.20;;;;;;5037528;28;20417;-80
2021/03/02 06:16:21;;;;;;;171.27;100.60;;;51.60;2227.20;;;;;;5037024;28;20029;-84
2021/03/02 06:18:52;;;;;;;151.68;93.28;;;51.80;2227.20;;;;;;5036783;28;20025;-84
2021/03/02 06:21:18;;;;;;;135.95;83.10;;;51.90;2227.20;;;;;;5037560;28;20036;-83
2021/03/02 06:23:52;;;;;;;117.70;70.97;;;51.90;2227.20;;;;;;5037068;28;20127;-80
2021/03/02 06:26:27;;;;;;;102.45;59.60;;;51.90;2227.20;;;;;;5036717;28;20147;-80
2021/03/02 06:28:55;;;;;;;83.20;50.70;;;52.00;2227.20;;;;;;5037486;28;20445;-82
2021/03/02 06:31:38;;;;;;;71.90;43.35;;;51.90;2227.20;;;;;;5036908;28;20025;-81
2021/03/02 06:34:11;;;;;;;86.55;47.28;;;52.00;2227.20;;;;;;5036364;28;20040;-85
2021/03/02 06:36:39;;;;;;;77.13;48.63;;;52.10;2227.20;;;;;;5037054;28;20035;-84
2021/03/02 06:39:23;;;;;;;85.43;51.03;;;52.10;2227.20;;;;;;5054611;28;20049;-84
2021/03/02 06:42:09;;;;;;;94.03;54.28;;;52.10;2227.20;;;;;;5036713;28;20056;-84
2021/03/02 06:44:35;;;;;;;98.80;64.22;;;52.10;2227.20;;;;;;5036388;28;20029;-86
2021/03/02 06:47:01;;;;;;;112.32;66.72;;;76.80;2227.20;;;;;;5035675;28;20029;-83
2021/03/02 06:49:40;;;;;;;94.65;54.42;;;76.80;2227.20;;;;;;5070339;28;20532;-85
2021/03/02 06:52:17;;;;;;;85.68;52.78;;;52.10;2227.20;;;;;;5036596;28;20025;-84
2021/03/02 06:54:45;;;;;;;90.18;50.45;;;52.10;2227.20;;;;;;5035450;28;20037;-81
2021/03/02 06:57:10;;;;;;;99.97;60.20;;;51.90;2227.20;;;;;;5044429;28;20029;-80
2021/03/02 06:59:36;;;;;;;86.32;52.45;;;52.10;2227.20;;;;;;5078299;28;20021;-84
2021/03/02 07:02:02;;;;;;;81.05;47.42;;;52.10;2227.20;;;;;;5069938;28;20044;-81
2021/03/02 07:04:30;;;;;;;134.85;74.88;;;76.80;2227.20;;;;;;5036742;28;20029;-80
2021/03/02 07:07:00;;;;;;;95.68;56.55;;;77.40;2227.20;;;;;;5036177;28;20029;-84
2021/03/02 07:09:27;;;;;;;121.68;67.10;;;76.80;2227.20;;;;;;5035810;28;20107;-80
2021/03/02 07:11:57;;;;;;;113.32;62.67;;;52.00;2227.20;;;;;;5069537;28;20036;-82
2021/03/02 07:14:24;;;;;;;107.75;64.20;;;76.90;2227.20;;;;;;5035795;28;20565;-82
2021/03/02 07:16:51;;;;;;;96.78;59.33;;;52.10;2227.20;;;;;;5036071;28;20025;-83
2021/03/02 07:19:19;;;;;;;79.88;46.97;;;76.90;2227.20;;;;;;5035836;28;20025;-81
2021/03/02 07:21:49;;;;;;;72.97;46.83;;;77.00;2227.20;;;;;;5040762;28;20024;-86
2021/03/02 07:24:18;;;;;;;70.20;44.00;;;76.90;2227.20;;;;;;5055943;28;20067;-80
2021/03/02 07:26:46;;;;;;;73.32;43.53;;;77.00;2227.20;;;;;;5054903;28;20031;-84
2021/03/02 07:29:12;;;;;;;72.50;44.78;;;77.10;2227.20;;;;;;5055906;28;20484;-79
2021/03/02 07:31:39;;;;;;;74.63;44.13;;;77.00;2227.20;;;;;;5056532;28;20047;-83
2021/03/02 07:34:12;;;;;;;74.57;43.70;;;77.00;2227.20;;;;;;5055647;28;20032;-82
2021/03/02 07:36:41;;;;;;;96.35;56.00;;;77.20;2227.20;;;;;;5055999;28;20082;-81
2021/03/02 07:39:14;;;;;;;95.80;60.55;;;77.30;2227.20;;;;;;5055790;28;20166;-82
2021/03/02 07:41:40;;;;;;;106.07;61.20;;;77.30;2227.20;;;;;;5055818;28;20117;-86
2021/03/02 07:44:07;;;;;;;80.20;50.92;;;77.40;2227.20;;;;;;5055705;28;20166;-81
2021/03/02 07:46:42;;;;;;;83.03;48.15;;;77.70;2227.20;;;;;;5055793;28;20031;-81
2021/03/02 07:49:23;;;;;;;95.45;56.88;;;102.40;2227.20;;;;;;5055951;28;20051;-81
2021/03/02 07:52:15;;;;;;;82.18;50.63;;;102.50;2227.20;;;;;;5055828;28;20358;-88
2021/03/02 07:54:42;;;;;;;78.38;47.67;;;102.60;2227.20;;;;;;5050980;28;20045;-84
2021/03/02 07:57:16;;;;;;;79.63;50.20;;;102.70;2227.20;;;;;;5055782;28;20051;-83
2021/03/02 07:59:44;;;;;;;83.85;49.55;;;102.70;2227.20;;;;;;5058276;28;20032;-81
2021/03/02 08:02:22;;;;;;;77.80;52.60;;;102.70;2227.20;;;;;;5059450;28;20032;-81
2021/03/02 08:04:49;;;;;;;75.45;48.45;;;102.90;2227.20;;;;;;5059291;28;20093;-76
2021/03/02 08:07:27;;;;;;;78.47;51.78;;;103.00;2227.20;;;;;;5077294;28;20083;-78
2021/03/02 08:09:55;;;;;;;81.80;55.53;;;103.10;2227.20;;;;;;5077580;28;20032;-79
2021/03/02 08:12:25;;;;;;;100.53;67.63;;;103.20;2227.20;;;;;;5058991;28;20021;-79
2021/03/02 08:14:51;;;;;;;86.55;60.95;;;103.30;2227.20;;;;;;5077362;28;20028;-78
2021/03/02 08:17:21;;;;;;;90.82;54.13;;;128.00;2252.80;;;;;;5059539;28;20350;-77
2021/03/02 08:19:48;;;;;;;76.60;49.88;;;128.10;2252.80;;;;;;5077084;28;20025;-80
2021/03/02 08:22:18;;;;;;;80.28;48.28;;;128.40;2252.80;;;;;;5052984;28;20440;-82
2021/03/02 08:24:57;;;;;;;70.28;46.55;;;128.40;2252.80;;;;;;5056701;28;20519;-80
2021/03/02 08:27:37;;;;;;;62.35;44.03;;;128.60;2252.80;;;;;;5055943;28;20048;-77
2021/03/02 08:30:14;;;;;;;60.20;41.10;;;128.80;2252.80;;;;;;5039073;28;20164;-79
2021/03/02 08:32:43;;;;;;;62.22;39.72;;;128.80;2252.80;;;;;;5038647;28;20025;-78
2021/03/02 08:35:11;;;;;;;59.30;40.72;;;153.60;2252.80;;;;;;5038820;28;20171;-77
2021/03/02 08:37:44;;;;;;;56.45;37.42;;;153.70;2252.80;;;;;;5056743;28;20523;-77
2021/03/02 08:40:11;;;;;;;;;;;153.70;2252.80;;;;;;5034974;28;20036;-76
2021/03/02 08:42:57;;;;;;;61.70;40.53;;;153.90;2252.80;;;;;;5037197;28;19909;-78
2021/03/02 08:45:23;;;;;;;65.05;40.28;;;154.00;2252.80;;;;;;5047054;28;20025;-74
2021/03/02 08:47:49;;;;;;;62.80;38.40;;;154.00;2252.80;;;;;;5041055;28;20049;-77
2021/03/02 08:50:15;;;;;;;62.38;40.17;;;154.10;2252.80;;;;;;5051764;28;20029;-74
2021/03/02 08:52:41;;;;;;;54.13;37.65;;;154.30;2252.80;;;;;;5038155;28;20032;-77
2021/03/02 08:55:08;;;;;;;54.08;36.42;;;154.40;2252.80;;;;;;5070613;28;20029;-76
2021/03/02 08:57:46;;;;;;;54.55;38.05;;;179.20;2252.80;;;;;;5055709;28;20025;-77
2021/03/02 09:00:16;;;;;;;54.35;35.25;;;179.30;2252.80;;;;;;5055776;28;20051;-76
2021/03/02 09:02:45;;;;;;;53.38;37.40;;;179.40;2227.20;;;;;;5055974;28;20029;-77
2021/03/02 09:05:18;;;;;;;56.13;35.00;;;179.50;2227.20;;;;;;5038152;28;20106;-74
2021/03/02 09:08:06;;;;;;;54.10;36.03;;;179.70;2227.20;;;;;;5037867;28;20029;-76
2021/03/02 09:10:32;;;;;;;50.80;35.97;;;179.70;2176.00;;;;;;5037007;28;20421;-76
2021/03/02 09:12:58;;;;;;;54.20;37.05;;;179.60;2176.00;;;;;;5054663;28;20120;-75
2021/03/02 09:15:42;;;;;;;55.40;37.70;;;179.90;2176.00;;;;;;5068469;28;20149;-76
2021/03/02 09:18:15;;;;;;;58.60;40.70;;;180.00;2124.80;;;;;;5050269;28;20113;-76
2021/03/02 09:20:54;;;;;;;55.97;39.10;;;180.10;2124.80;;;;;;5054705;28;20067;-76
2021/03/02 09:23:20;;;;;;;80.13;56.90;;;204.80;2124.80;;;;;;5037776;28;20025;-77
2021/03/02 09:25:45;;;;;;;57.05;42.25;;;205.00;2099.20;;;;;;5036462;28;20098;-75
2021/03/02 09:28:18;;;;;;;68.13;45.20;;;205.00;2073.60;;;;;;5037465;28;20079;-75
2021/03/02 09:30:45;;;;;;;77.07;48.38;;;205.10;2073.60;;;;;;5055911;28;20025;-77
2021/03/02 09:33:16;;;;;;;57.03;38.92;;;205.50;2073.60;;;;;;5037648;28;20082;-77
2021/03/02 09:35:42;;;;;;;63.50;42.03;;;205.50;2048.00;;;;;;5037153;28;20040;-77
2021/03/02 09:38:26;;;;;;;53.90;36.63;;;205.70;2022.40;;;;;;5055299;28;20029;-77
2021/03/02 09:40:52;;;;;;;54.63;39.53;;;230.40;1971.20;;;;;;5055390;28;20036;-77
2021/03/02 09:43:18;;;;;;;55.63;38.60;;;230.50;1971.20;;;;;;5055025;28;20025;-77
2021/03/02 09:45:53;;;;;;;47.67;35.53;;;230.50;1996.80;;;;;;5036999;28;20047;-78
2021/03/02 09:48:19;;;;;;;45.15;30.20;;;230.70;1945.60;;;;;;5054965;28;20041;-77
2021/03/02 09:50:44;;;;;;;46.45;32.05;;;230.80;1945.60;;;;;;5037907;28;20031;-78
2021/03/02 09:53:13;;;;;;;62.58;45.58;;;230.80;1945.60;;;;;;5035367;28;20510;-78
2021/03/02 09:55:38;;;;;;;42.53;30.00;;;230.80;1894.40;;;;;;5036972;28;20458;-78
2021/03/02 09:58:15;;;;;;;49.13;31.45;;;230.80;1894.40;;;;;;5036187;28;20064;-80
2021/03/02 10:00:52;;;;;;;52.10;35.85;;;230.90;1894.40;;;;;;5036979;28;20064;-79
2021/03/02 10:03:19;;;;;;;48.78;32.13;;;231.00;1868.80;;;;;;5054966;28;20409;-78
2021/03/02 10:05:53;;;;;;;66.68;47.10;;;231.20;1868.80;;;;;;5036685;28;20456;-79
2021/03/02 10:08:27;;;;;;;47.15;32.83;;;231.30;1817.60;;;;;;5037591;28;20025;-81
2021/03/02 10:11:17;;;;;;;40.15;27.45;;;256.10;1792.00;;;;;;5036872;28;20033;-78
2021/03/02 10:13:46;;;;;;;39.38;27.77;;;256.30;1817.60;;;;;;5054433;28;20025;-78
2021/03/02 10:16:24;;;;;;;36.63;25.83;;;256.60;1766.40;;;;;;5055158;28;20086;-79
2021/03/02 10:19:14;;;;;;;38.22;25.85;;;256.80;1740.80;;;;;;5036771;28;20032;-79
2021/03/02 10:21:49;;;;;;;40.72;28.38;;;256.90;1740.80;;;;;;5044094;28;20044;-81
2021/03/02 10:24:27;;;;;;;36.90;26.50;;;281.70;1766.40;;;;;;5054946;28;20029;-78
2021/03/02 10:27:08;;;;;;;38.67;26.45;;;282.00;1715.20;;;;;;5035211;28;20033;-77
2021/03/02 10:29:34;;;;;;;41.38;28.73;;;281.90;1715.20;;;;;;5036660;28;20029;-78
2021/03/02 10:32:00;;;;;;;41.40;30.00;;;281.80;1740.80;;;;;;5070670;28;20078;-79
2021/03/02 10:34:26;;;;;;;39.80;28.60;;;282.00;1740.80;;;;;;5052755;28;20120;-78
2021/03/02 10:36:53;;;;;;;44.25;28.88;;;281.90;1740.80;;;;;;5069942;28;20527;-83
2021/03/02 10:39:19;;;;;;;42.53;29.08;;;281.70;1715.20;;;;;;5036407;28;20036;-83
2021/03/02 10:41:45;;;;;;;44.65;30.90;;;281.80;1715.20;;;;;;5054042;28;20108;-81
2021/03/02 10:44:11;;;;;;;37.95;27.60;;;282.00;1689.60;;;;;;5052826;28;20025;-79
2021/03/02 10:46:38;;;;;;;36.92;25.55;;;282.20;1689.60;;;;;;5053758;28;20025;-79
2021/03/02 10:49:05;;;;;;;46.28;28.50;;;282.20;1664.00;;;;;;5054200;28;20080;-81
2021/03/02 10:51:32;;;;;;;48.45;32.53;;;282.50;1689.60;;;;;;5034172;28;20071;-81
2021/03/02 10:53:58;;;;;;;51.22;33.15;;;307.30;1689.60;;;;;;5053031;28;20033;-79
2021/03/02 10:56:25;;;;;;;41.95;28.00;;;307.60;1638.40;;;;;;5035155;28;20033;-79
2021/03/02 10:58:51;;;;;;;34.45;25.08;;;307.60;1612.80;;;;;;5035808;28;20482;-80
2021/03/02 11:01:18;;;;;;;28.58;19.48;;;307.70;1612.80;;;;;;5054149;28;20033;-78
2021/03/02 11:03:44;;;;;;;37.58;26.83;;;307.50;1587.20;;;;;;5035754;28;20087;-77
2021/03/02 11:06:15;;;;;;;22.58;15.98;;;307.40;1612.80;;;;;;5069655;28;20029;-75
2021/03/02 11:08:43;;;;;;;20.73;14.80;;;307.30;1561.60;;;;;;5036175;28;20028;-77
2021/03/02 11:11:12;;;;;;;17.90;13.23;;;307.30;1536.00;;;;;;5036294;28;20059;-83
2021/03/02 11:13:38;;;;;;;21.08;14.60;;;307.20;1510.40;;;;;;5038473;28;20025;-84
2021/03/02 11:16:04;;;;;;;52.45;28.63;;;307.30;1536.00;;;;;;5074333;28;20082;-84
2021/03/02 11:18:30;;;;;;;23.88;17.38;;;307.20;1561.60;;;;;;5055866;28;20078;-80
2021/03/02 11:20:56;;;;;;;31.20;20.45;;;307.20;1536.00;;;;;;5056242;28;20029;-83
2021/03/02 11:23:22;;;;;;;33.60;23.42;;;282.50;1536.00;;;;;;5039140;28;20095;-84
2021/03/02 11:25:48;;;;;;;23.73;16.02;;;307.20;1536.00;;;;;;5036100;28;20029;-81
2021/03/02 11:28:15;;;;;;;20.23;13.73;;;307.40;1510.40;;;;;;5035535;28;20090;-81
2021/03/02 11:30:42;;;;;;;19.40;14.18;;;307.70;1484.80;;;;;;5035742;28;20043;-82
2021/03/02 11:33:09;;;;;;;20.02;14.95;;;307.90;1433.60;;;;;;5053927;28;20449;-82
2021/03/02 11:35:36;;;;;;;27.67;17.73;;;307.90;1433.60;;;;;;5040400;28;20390;-83
2021/03/02 11:38:01;;;;;;;26.08;16.25;;;332.80;1459.20;;;;;;5040649;28;20417;-82
2021/03/02 11:40:30;;;;;;;24.35;14.90;;;307.80;1433.60;;;;;;5038754;28;20029;-76
2021/03/02 11:42:57;;;;;;;23.63;16.02;;;307.70;1433.60;;;;;;5056953;28;20641;-79
2021/03/02 11:45:27;;;;;;;67.97;39.05;;;307.60;1459.20;;;;;;5055977;28;20029;-81
2021/03/02 11:47:54;;;;;;;43.28;26.30;;;307.60;1459.20;;;;;;5039741;28;20051;-81
2021/03/02 11:50:20;;;;;;;28.33;19.30;;;307.60;1459.20;;;;;;5040429;28;20021;-78
2021/03/02 11:52:47;;;;;;;35.63;22.30;;;307.30;1459.20;;;;;;5057105;28;20450;-81
2021/03/02 11:55:14;;;;;;;25.92;16.25;;;307.60;1459.20;;;;;;5039595;28;20036;-78
2021/03/02 11:57:40;;;;;;;31.90;20.67;;;308.10;1433.60;;;;;;5039672;28;20047;-81
2021/03/02 12:00:11;;;;;;;18.23;12.98;;;332.90;1382.40;;;;;;5057126;28;20462;-81
2021/03/02 12:02:38;;;;;;;40.30;25.58;;;333.00;1331.20;;;;;;5040160;28;20351;-80
2021/03/02 12:05:04;;;;;;;28.20;19.50;;;333.30;1356.80;;;;;;5039598;28;20094;-81
2021/03/02 12:07:30;;;;;;;21.25;15.05;;;358.40;1331.20;;;;;;5039452;28;20470;-79
2021/03/02 12:09:56;;;;;;;22.52;16.58;;;358.90;1305.60;;;;;;5039717;28;20021;-82